Time;durP1;ratioP1;P1;durP2;ratioP2;P2;SDS_P1;SDS_P2;PMS_P1;PMS_P2;Temp;Humidity;BMP_temperature;BMP_pressure;BME280_temperature;BME280_humidity;BME280_pressure;Samples;Min_cycle;Max_cycle;Signal;HPM_P1;HPM_P2
2023/10/09 00:01:13;;;;;;;;;5.00;5.00;;;;;12.65;42.73;100321.94;5091307;28;8823;-80
2023/10/09 00:03:55;;;;;;;;;5.40;5.40;;;;;12.79;42.62;100318.19;5109011;28;8856;-80
2023/10/09 00:06:37;;;;;;;;;7.20;6.00;;;;;12.85;42.96;100313.72;5093119;27;8907;-80
2023/10/09 00:11:56;;;;;;;;;7.60;7.00;;;;;12.72;43.11;100314.81;5053757;28;8846;-81
2023/10/09 00:14:26;;;;;;;;;7.60;7.60;;;;;12.66;42.89;100301.75;5070122;28;8891;-83
2023/10/09 00:17:05;;;;;;;;;9.60;9.60;;;;;12.72;42.52;100293.72;5033647;28;8883;-80
2023/10/09 00:19:33;;;;;;;;;9.00;9.00;;;;;12.79;42.39;100303.25;4986354;28;8868;-83
2023/10/09 00:22:10;;;;;;;;;12.00;10.60;;;;;12.71;42.48;100306.03;5066109;28;8844;-86
2023/10/09 00:24:45;;;;;;;;;7.40;7.40;;;;;12.76;42.53;100316.50;5066390;28;8844;-81
2023/10/09 00:27:19;;;;;;;;;8.80;8.80;;;;;12.59;43.03;100314.16;5062695;28;8871;-81
2023/10/09 00:29:48;;;;;;;;;11.00;11.00;;;;;12.71;42.75;100311.31;5049581;28;8856;-82
2023/10/09 00:32:18;;;;;;;;;11.60;9.80;;;;;12.77;42.37;100306.81;5049187;28;8860;-81
2023/10/09 00:34:50;;;;;;;;;10.00;9.40;;;;;12.74;42.41;100305.97;5049435;28;8860;-82
2023/10/09 00:37:22;;;;;;;;;8.00;8.00;;;;;12.52;42.84;100301.97;5048625;28;9023;-87
2023/10/09 00:39:55;;;;;;;;;8.60;8.60;;;;;12.61;43.13;100296.53;5046275;28;9561;-84
2023/10/09 00:42:29;;;;;;;;;8.20;6.60;;;;;12.72;42.96;100291.94;5052974;28;8844;-84
2023/10/09 00:45:03;;;;;;;;;8.40;7.40;;;;;12.73;42.75;100287.53;5049875;28;8937;-82
2023/10/09 00:47:35;;;;;;;;;7.80;6.60;;;;;12.68;42.76;100290.25;5066251;28;8852;-79
2023/10/09 00:50:10;;;;;;;;;8.20;8.20;;;;;12.76;42.52;100286.63;5118361;27;8858;-83
2023/10/09 00:52:44;;;;;;;;;7.00;6.80;;;;;12.74;42.92;100289.28;5095030;27;8849;-80
2023/10/09 00:55:14;;;;;;;;;8.00;6.80;;;;;12.71;42.57;100284.03;5093611;27;8865;-83
2023/10/09 00:57:56;;;;;;;;;7.00;7.00;;;;;12.80;42.51;100275.97;5109828;27;8825;-84
2023/10/09 01:00:32;;;;;;;;;8.60;8.00;;;;;12.68;42.83;100278.84;5111790;27;8853;-83
2023/10/09 01:03:18;;;;;;;;;7.80;6.80;;;;;12.66;42.35;100278.00;5093426;27;8809;-86
2023/10/09 01:05:58;;;;;;;;;6.60;6.60;;;;;12.62;42.51;100277.19;5070162;28;8854;-78
2023/10/09 01:08:43;;;;;;;;;6.80;6.80;;;;;12.67;42.47;100277.94;5072059;28;8830;-87
2023/10/09 01:11:18;;;;;;;;;6.20;6.20;;;;;12.62;42.24;100276.31;5072920;28;8854;-83
2023/10/09 01:13:54;;;;;;;;;5.00;5.00;;;;;12.64;42.04;100285.94;5072886;28;8868;-77
2023/10/09 01:16:24;;;;;;;;;5.20;5.20;;;;;12.63;42.42;100288.59;5089314;28;8869;-81
2023/10/09 01:18:57;;;;;;;;;6.20;6.20;;;;;12.59;42.25;100294.81;5055112;28;8846;-81
2023/10/09 01:21:26;;;;;;;;;9.20;8.20;;;;;12.58;42.11;100293.06;5089438;28;8862;-85
2023/10/09 01:24:04;;;;;;;;;7.60;7.00;;;;;12.57;42.65;100284.31;5072545;28;8833;-82
2023/10/09 01:26:39;;;;;;;;;7.40;7.40;;;;;12.50;42.33;100288.81;5090165;28;8866;-85
2023/10/09 01:29:14;;;;;;;;;9.60;8.20;;;;;12.53;42.10;100279.97;5069230;28;8855;-80
2023/10/09 01:31:51;;;;;;;;;9.00;8.20;;;;;12.51;42.53;100285.28;5036883;28;8867;-84
2023/10/09 01:34:24;;;;;;;;;8.20;8.20;;;;;12.52;42.39;100279.13;5051133;28;8866;-84
2023/10/09 01:36:55;;;;;;;;;12.00;9.60;;;;;12.51;42.28;100290.56;5086472;28;8998;-82
2023/10/09 01:39:27;;;;;;;;;11.00;11.00;;;;;12.45;42.33;100295.06;5060548;28;8835;-86
2023/10/09 01:42:00;;;;;;;;;11.00;11.00;;;;;12.47;42.81;100296.78;5091944;28;8928;-88
2023/10/09 01:44:34;;;;;;;;;12.80;12.80;;;;;12.41;42.71;100304.78;5108820;28;8913;-82
2023/10/09 01:47:07;;;;;;;;;9.00;9.00;;;;;12.45;42.85;100302.97;5092461;28;8962;-80
2023/10/09 01:49:37;;;;;;;;;12.40;10.80;;;;;12.39;43.02;100305.69;5053703;28;8976;-85
2023/10/09 01:52:15;;;;;;;;;10.20;9.40;;;;;12.39;42.74;100301.31;5039211;28;8924;-81
2023/10/09 01:54:48;;;;;;;;;9.60;9.60;;;;;12.43;42.97;100291.56;5054129;28;8844;-80
2023/10/09 01:57:22;;;;;;;;;13.40;13.40;;;;;12.41;43.26;100288.09;5042226;28;8991;-78
2023/10/09 01:59:54;;;;;;;;;10.20;9.40;;;;;12.41;42.85;100294.25;5097336;28;8823;-81
2023/10/09 02:02:26;;;;;;;;;16.80;15.20;;;;;12.38;42.86;100285.53;5093991;28;8949;-82
2023/10/09 02:05:09;;;;;;;;;7.40;7.20;;;;;12.20;43.12;100289.31;5090419;28;8923;-85
2023/10/09 02:07:51;;;;;;;;;9.80;9.80;;;;;12.00;43.50;100287.00;5089610;28;9831;-85
2023/10/09 02:10:31;;;;;;;;;11.80;11.80;;;;;11.98;43.19;100273.84;5089809;28;9035;-83
2023/10/09 02:13:09;;;;;;;;;11.80;11.80;;;;;12.00;43.47;100279.09;5089449;28;8840;-83
2023/10/09 02:15:45;;;;;;;;;11.40;10.80;;;;;12.04;43.09;100273.72;5073383;28;8836;-84
2023/10/09 02:18:26;;;;;;;;;11.00;11.00;;;;;12.07;43.33;100267.53;5089458;28;8929;-81
2023/10/09 02:21:13;;;;;;;;;8.40;8.40;;;;;12.20;43.21;100268.22;5052410;28;8870;-83
2023/10/09 02:23:46;;;;;;;;;12.60;12.40;;;;;12.14;42.89;100261.28;5076886;28;9601;-78
2023/10/09 02:26:19;;;;;;;;;10.80;10.80;;;;;12.17;42.49;100269.16;5090792;28;8836;-83
2023/10/09 02:28:58;;;;;;;;;13.60;11.80;;;;;12.14;42.78;100266.56;5090663;28;8836;-81
2023/10/09 02:31:35;;;;;;;;;9.60;9.60;;;;;12.15;42.51;100268.31;5089914;28;9679;-81
2023/10/09 02:34:11;;;;;;;;;12.20;11.20;;;;;11.93;42.96;100270.38;5087909;28;8839;-85
2023/10/09 02:36:43;;;;;;;;;14.80;13.80;;;;;11.91;42.84;100275.69;5089052;28;8852;-80
2023/10/09 02:39:22;;;;;;;;;15.00;14.20;;;;;11.89;43.02;100282.72;5088979;28;8954;-80
2023/10/09 02:42:00;;;;;;;;;14.60;13.80;;;;;11.95;43.44;100279.13;5088678;28;8892;-81
2023/10/09 02:44:34;;;;;;;;;11.60;11.60;;;;;12.02;43.04;100274.66;5088762;28;8906;-85
2023/10/09 02:47:05;;;;;;;;;6.00;6.00;;;;;12.07;43.22;100276.34;5072044;28;8824;-80
2023/10/09 02:49:38;;;;;;;;;12.60;10.80;;;;;12.12;43.09;100270.97;5088088;28;8868;-82
2023/10/09 02:52:07;;;;;;;;;12.80;12.00;;;;;12.13;43.33;100267.47;5088842;28;8878;-77
2023/10/09 02:54:41;;;;;;;;;12.00;11.40;;;;;12.17;43.10;100263.88;5097064;28;9516;-78
2023/10/09 02:57:21;;;;;;;;;12.80;9.20;;;;;12.23;43.11;100252.38;5109087;28;8833;-82
2023/10/09 02:59:52;;;;;;;;;12.20;12.20;;;;;12.27;42.98;100252.28;5110982;28;8851;-77
2023/10/09 03:02:24;;;;;;;;;39.75;35.25;;;;;12.33;43.23;100264.47;5109955;28;8841;-84
2023/10/09 03:04:55;;;;;;;;;13.00;13.00;;;;;12.34;42.93;100260.97;5110004;28;8837;-80
2023/10/09 03:07:24;;;;;;;;;19.20;18.60;;;;;12.34;42.95;100256.56;5112435;28;8863;-80
2023/10/09 03:09:53;;;;;;;;;14.80;14.80;;;;;12.31;42.97;100261.88;5074668;28;8945;-81
2023/10/09 03:12:27;;;;;;;;;8.80;7.00;;;;;11.89;44.16;100266.06;5109621;28;8841;-81
2023/10/09 03:14:58;;;;;;;;;16.40;14.20;;;;;11.52;44.58;100266.53;5109594;28;8864;-79
2023/10/09 03:17:28;;;;;;;;;13.60;13.40;;;;;11.50;44.84;100266.59;5092751;28;8880;-83
2023/10/09 03:19:58;;;;;;;;;13.00;12.20;;;;;11.08;46.09;100270.59;5110038;28;8849;-83
2023/10/09 03:22:27;;;;;;;;;11.80;11.80;;;;;10.72;46.85;100277.97;5059896;28;8857;-82
2023/10/09 03:24:56;;;;;;;;;14.80;14.60;;;;;10.92;46.49;100277.81;5109166;28;8928;-76
2023/10/09 03:27:26;;;;;;;;;13.80;13.00;;;;;11.13;46.15;100274.06;5108881;28;8910;-84
2023/10/09 03:29:55;;;;;;;;;11.00;11.00;;;;;11.30;46.51;100265.97;5091391;28;8849;-85
2023/10/09 03:32:24;;;;;;;;;11.20;11.20;;;;;11.50;46.49;100260.41;5108825;28;8849;-80
2023/10/09 03:34:55;;;;;;;;;10.20;10.20;;;;;11.63;45.86;100259.38;5107420;28;8895;-82
2023/10/09 03:37:34;;;;;;;;;12.40;12.40;;;;;11.71;45.71;100275.06;5109298;28;8873;-80
2023/10/09 03:40:07;;;;;;;;;13.00;11.60;;;;;11.82;46.17;100273.16;5110013;28;8913;-81
2023/10/09 03:42:42;;;;;;;;;14.40;11.80;;;;;11.90;45.82;100268.69;5096502;28;9021;-82
2023/10/09 03:45:18;;;;;;;;;12.00;11.40;;;;;11.97;45.61;100268.59;5114654;28;8849;-81
2023/10/09 03:47:48;;;;;;;;;11.80;10.60;;;;;12.08;45.22;100266.66;5110972;28;8949;-80
2023/10/09 03:50:26;;;;;;;;;12.60;12.60;;;;;12.13;44.96;100278.00;5109050;28;8983;-84
2023/10/09 03:52:55;;;;;;;;;12.80;12.80;;;;;12.21;44.11;100260.28;5090675;28;8915;-82
2023/10/09 03:55:27;;;;;;;;;23.20;22.80;;;;;12.28;43.85;100258.44;5107622;28;8853;-79
2023/10/09 03:57:59;;;;;;;;;59.50;46.00;;;;;12.36;43.82;100264.44;5091185;28;8853;-81
2023/10/09 04:00:31;;;;;;;;;15.00;13.00;;;;;12.34;43.39;100266.25;5091162;28;8985;-81
2023/10/09 04:03:00;;;;;;;;;22.60;20.80;;;;;12.32;42.84;100266.25;5108559;28;8876;-84
2023/10/09 04:05:30;;;;;;;;;14.40;14.40;;;;;12.22;43.08;100263.78;5091356;28;8844;-80
2023/10/09 04:08:01;;;;;;;;;8.00;7.80;;;;;12.12;43.37;100276.25;5106964;28;8849;-83
2023/10/09 04:10:51;;;;;;;;;15.00;15.00;;;;;12.12;43.59;100274.47;5105552;28;8963;-83
2023/10/09 04:13:33;;;;;;;;;14.80;13.40;;;;;12.20;43.89;100276.13;5089652;28;8849;-80
2023/10/09 04:16:34;;;;;;;;;14.00;13.40;;;;;12.25;43.85;100269.03;5070000;28;8843;-86
2023/10/09 04:18:56;;;;;;;;;15.20;14.20;;;;;12.29;44.11;100273.34;5088329;28;8840;-83
2023/10/09 04:21:34;;;;;;;;;10.40;9.20;;;;;12.38;44.08;100269.69;5091934;28;8848;-81
2023/10/09 04:24:22;;;;;;;;;38.20;34.00;;;;;12.29;44.31;100268.06;5090180;28;8878;-84
2023/10/09 04:26:56;;;;;;;;;19.80;16.80;;;;;12.33;44.17;100282.94;5066103;28;8877;-81
2023/10/09 04:29:27;;;;;;;;;17.20;13.60;;;;;12.36;44.38;100277.63;5106731;28;9003;-81
2023/10/09 04:31:59;;;;;;;;;22.00;16.60;;;;;12.29;44.63;100274.22;5055936;28;9517;-85
2023/10/09 04:34:35;;;;;;;;;18.20;16.20;;;;;12.29;44.66;100273.34;5106134;28;8860;-77
2023/10/09 04:37:36;;;;;;;;;14.60;14.00;;;;;12.24;44.50;100281.34;5106259;28;8953;-82
2023/10/09 04:40:12;;;;;;;;;19.40;17.40;;;;;11.96;44.84;100283.53;5107676;28;8895;-78
2023/10/09 04:42:46;;;;;;;;;15.80;14.20;;;;;11.96;44.84;100275.63;5091657;28;8853;-85
2023/10/09 04:45:59;;;;;;;;;43.75;37.25;;;;;11.99;45.12;100272.06;5095042;28;8845;-77
2023/10/09 04:48:09;;;;;;;;;33.80;31.20;;;;;11.75;45.74;100277.66;5074621;28;8856;-80
2023/10/09 04:51:20;;;;;;;;;34.60;33.20;;;;;11.77;45.55;100270.59;5092081;28;8856;-80
2023/10/09 04:53:43;;;;;;;;;20.60;19.80;;;;;11.83;45.26;100274.94;5100946;28;8848;-82
2023/10/09 04:56:16;;;;;;;;;14.00;14.00;;;;;11.86;45.35;100266.09;5092744;28;8853;-79
2023/10/09 04:58:47;;;;;;;;;20.60;18.00;;;;;11.87;45.42;100260.81;5060019;28;9000;-83
2023/10/09 05:01:35;;;;;;;;;14.40;14.40;;;;;11.91;45.12;100259.88;5111026;28;8857;-87
2023/10/09 05:04:15;;;;;;;;;16.40;14.80;;;;;11.86;45.20;100263.47;5112521;28;8821;-80
2023/10/09 05:06:55;;;;;;;;;17.40;15.40;;;;;11.91;45.24;100264.28;5124682;27;8851;-77
2023/10/09 05:09:24;;;;;;;;;19.60;15.60;;;;;11.92;44.98;100263.41;5113310;27;8904;-81
2023/10/09 05:12:15;;;;;;;;;16.60;16.00;;;;;11.97;44.94;100255.41;5112798;28;9590;-84
2023/10/09 05:15:04;;;;;;;;;15.80;15.00;;;;;11.95;45.07;100252.78;5093839;28;8829;-81
2023/10/09 05:17:38;;;;;;;;;16.80;16.60;;;;;11.77;45.36;100248.66;5116086;27;8862;-82
2023/10/09 05:22:58;;;;;;;;;14.80;14.80;;;;;11.68;44.77;100241.75;5107964;28;8857;-82
2023/10/09 05:28:30;;;;;;;;;15.80;15.80;;;;;11.74;45.15;100246.91;5111426;28;8960;-81
2023/10/09 05:31:12;;;;;;;;;2.40;1.00;;;;;11.71;45.27;100254.88;5112550;28;8868;-78
2023/10/09 05:33:45;;;;;;;;;10.20;10.20;;;;;11.73;45.14;100262.75;5108442;28;9560;-84
2023/10/09 05:36:35;;;;;;;;;12.00;12.00;;;;;11.76;45.08;100250.41;5103601;28;8970;-78
2023/10/09 05:42:07;;;;;;;;;16.00;15.40;;;;;11.85;44.65;100241.53;5109374;28;8986;-80
2023/10/09 05:45:30;;;;;;;;;15.40;14.20;;;;;11.70;44.85;100247.84;5088974;28;8839;-81
2023/10/09 05:47:53;;;;;;;;;15.40;15.40;;;;;11.61;45.23;100250.63;5088541;28;8858;-79
2023/10/09 05:50:37;;;;;;;;;25.00;23.60;;;;;11.67;45.73;100247.91;5088921;28;8823;-81
2023/10/09 05:53:19;;;;;;;;;20.00;16.60;;;;;11.76;45.72;100252.16;5054301;28;8851;-82
2023/10/09 06:01:06;;;;;;;;;21.00;19.60;;;;;11.71;45.85;100280.31;5071773;28;8960;-78
2023/10/09 06:04:33;;;;;;;;;11.80;11.80;;;;;11.96;44.82;100270.34;4994236;28;8902;-80
2023/10/09 06:07:13;;;;;;;;;15.20;12.60;;;;;12.20;44.92;100255.03;4986308;28;9008;-80
2023/10/09 06:09:52;;;;;;;;;15.40;15.40;;;;;12.39;44.46;100256.50;4988167;28;9012;-83
2023/10/09 06:15:31;;;;;;;;;14.00;13.40;;;;;12.59;43.21;100250.00;4987627;28;8876;-78
2023/10/09 06:18:25;;;;;;;;;14.20;14.00;;;;;12.69;42.86;100252.44;4971822;28;8840;-82
2023/10/09 06:24:14;;;;;;;;;9.20;8.40;;;;;12.70;42.57;100262.06;5153259;27;9506;-79
2023/10/09 06:27:11;;;;;;;;;15.20;15.20;;;;;12.67;42.54;100263.91;5078409;27;8882;-84
2023/10/09 06:32:37;;;;;;;;;20.20;20.00;;;;;12.73;42.80;100263.78;5132421;27;8841;-83
2023/10/09 06:35:18;;;;;;;;;17.60;17.20;;;;;12.92;43.05;100256.44;5083903;27;8861;-81
2023/10/09 06:43:28;;;;;;;;;15.20;13.80;;;;;13.09;42.25;100269.28;5100886;27;8857;-80
2023/10/09 06:48:55;;;;;;;;;19.60;17.60;;;;;13.34;42.40;100250.34;5087344;27;8929;-80
2023/10/09 06:51:42;;;;;;;;;18.20;16.80;;;;;13.41;42.20;100251.91;5096289;28;8859;-80
2023/10/09 06:54:15;;;;;;;;;18.60;16.80;;;;;13.57;42.26;100249.84;5073786;28;8816;-81
2023/10/09 07:00:15;;;;;;;;;14.40;14.40;;;;;13.39;42.47;100254.63;5095036;27;8845;-84
2023/10/09 07:02:45;;;;;;;;;15.00;12.80;;;;;13.75;42.06;100251.19;5106479;27;8965;-83
2023/10/09 07:05:17;;;;;;;;;14.20;14.00;;;;;13.54;42.30;100239.31;5073921;27;8969;-81
2023/10/09 07:07:54;;;;;;;;;15.40;13.00;;;;;13.83;42.09;100251.94;5104088;27;8845;-81
2023/10/09 07:10:32;;;;;;;;;12.40;12.40;;;;;13.81;41.84;100243.13;5127109;27;8841;-81
2023/10/09 07:13:03;;;;;;;;;14.40;14.00;;;;;13.90;41.98;100248.22;5125612;27;8849;-81
2023/10/09 07:18:23;;;;;;;;;10.80;9.00;;;;;13.95;41.54;100237.53;5130418;27;8849;-79
2023/10/09 07:21:11;;;;;;;;;10.20;10.20;;;;;13.68;42.35;100248.69;5094587;27;8857;-79
2023/10/09 07:23:48;;;;;;;;;11.60;11.00;;;;;14.01;41.96;100242.69;5100613;27;8849;-81
2023/10/09 07:26:23;;;;;;;;;8.80;8.60;;;;;13.79;41.88;100245.81;5109182;27;8881;-81
2023/10/09 07:29:15;;;;;;;;;13.00;11.00;;;;;13.93;41.39;100242.00;5107871;27;8890;-81
2023/10/09 07:31:46;;;;;;;;;11.80;10.80;;;;;13.95;41.46;100226.97;5102501;27;8902;-79
2023/10/09 07:34:40;;;;;;;;;10.60;8.00;;;;;14.02;41.28;100228.56;5119398;27;8861;-81
2023/10/09 07:37:19;;;;;;;;;11.00;11.00;;;;;13.92;41.67;100229.69;5111979;28;8884;-81
2023/10/09 07:39:56;;;;;;;;;11.20;9.40;;;;;13.62;42.26;100224.16;5110773;27;8892;-79
2023/10/09 07:42:43;;;;;;;;;15.40;12.80;;;;;13.97;41.67;100228.66;5111804;27;8999;-80
2023/10/09 07:46:29;;;;;;;;;11.60;11.60;;;;;14.20;41.38;100221.94;5128575;27;8854;-80
2023/10/09 07:48:04;;;;;;;;;12.80;12.60;;;;;14.24;41.38;100216.56;5132583;27;8873;-78
2023/10/09 07:50:46;;;;;;;;;11.60;10.80;;;;;13.85;42.17;100213.13;5097002;27;8878;-79
2023/10/09 07:53:17;;;;;;;;;11.00;10.80;;;;;14.26;41.62;100211.19;5095854;27;8946;-81
2023/10/09 07:55:54;;;;;;;;;11.40;11.40;;;;;14.26;41.47;100212.09;5069430;27;8885;-81
2023/10/09 07:58:25;;;;;;;;;13.60;13.00;;;;;14.09;41.73;100211.63;5111021;27;8874;-79
2023/10/09 08:01:22;;;;;;;;;15.00;14.60;;;;;14.34;41.54;100201.31;5108998;28;9573;-79
2023/10/09 08:04:01;;;;;;;;;11.00;9.00;;;;;14.68;40.95;100200.41;5072174;27;8841;-76
2023/10/09 08:06:38;;;;;;;;;10.40;10.40;;;;;14.93;40.40;100187.38;5108717;28;9683;-82
2023/10/09 08:09:45;;;;;;;;;12.20;12.20;;;;;14.73;40.85;100185.28;5108720;28;8867;-80
2023/10/09 08:12:39;;;;;;;;;12.60;12.60;;;;;14.71;40.80;100175.63;5071125;27;9075;-79
2023/10/09 08:15:21;;;;;;;;;19.20;18.00;;;;;14.82;40.77;100165.66;5128354;27;8845;-79
2023/10/09 08:17:58;;;;;;;;;10.40;10.20;;;;;15.21;40.65;100165.41;5128675;27;8853;-82
2023/10/09 08:20:36;;;;;;;;;12.00;9.60;;;;;15.26;40.02;100166.09;5128708;27;8861;-81
2023/10/09 08:23:22;;;;;;;;;11.40;11.00;;;;;15.23;40.20;100169.72;5119495;27;8939;-80
2023/10/09 08:25:57;;;;;;;;;12.40;11.40;;;;;15.39;39.51;100171.91;5107970;28;8838;-77
2023/10/09 08:28:39;;;;;;;;;11.20;10.00;;;;;15.56;39.85;100174.00;5117481;27;8998;-79
2023/10/09 08:31:19;;;;;;;;;10.80;9.20;;;;;15.89;38.95;100158.84;5122839;27;8857;-79
2023/10/09 08:33:56;;;;;;;;;11.80;11.80;;;;;16.02;38.08;100146.06;5112430;27;8900;-79
2023/10/09 08:36:36;;;;;;;;;8.00;8.00;;;;;16.11;38.30;100143.06;5118381;27;8892;-78
2023/10/09 08:39:16;;;;;;;;;10.60;9.00;;;;;16.32;38.06;100144.13;5111051;27;8954;-80
2023/10/09 08:41:45;;;;;;;;;12.00;12.00;;;;;16.40;37.48;100154.47;5110321;27;8922;-78
2023/10/09 08:44:15;;;;;;;;;12.80;10.80;;;;;16.15;37.64;100157.97;5128897;27;8839;-79
2023/10/09 08:46:45;;;;;;;;;15.20;15.20;;;;;16.37;37.34;100151.91;5128565;27;8854;-80
2023/10/09 08:49:15;;;;;;;;;15.60;14.00;;;;;16.34;37.18;100146.69;5115092;27;8889;-81
2023/10/09 08:51:47;;;;;;;;;14.00;13.00;;;;;16.52;37.17;100142.56;5109368;28;8861;-78
2023/10/09 08:54:16;;;;;;;;;17.20;14.60;;;;;16.08;37.46;100137.00;5110013;27;8965;-80
2023/10/09 08:56:50;;;;;;;;;11.40;11.40;;;;;15.43;38.42;100134.69;5109743;28;9018;-80
2023/10/09 08:59:20;;;;;;;;;11.20;11.20;;;;;15.47;38.33;100113.38;5109694;28;8845;-80
2023/10/09 09:01:52;;;;;;;;;19.20;15.60;;;;;15.54;38.93;100115.75;5110676;28;8833;-79
2023/10/09 09:04:39;;;;;;;;;11.40;11.00;;;;;16.02;37.56;100107.13;5124335;27;8850;-81
2023/10/09 09:07:26;;;;;;;;;13.20;11.40;;;;;16.34;37.53;100110.44;5116771;28;8853;-81
2023/10/09 09:10:04;;;;;;;;;14.80;13.60;;;;;16.56;36.68;100113.19;5128600;27;8877;-80
2023/10/09 09:12:40;;;;;;;;;10.80;10.60;;;;;16.17;36.06;100121.66;5126190;27;8883;-78
2023/10/09 09:15:20;;;;;;;;;13.00;12.40;;;;;16.10;36.49;100121.91;5113439;27;8957;-80
2023/10/09 09:17:50;;;;;;;;;12.00;11.00;;;;;16.39;36.14;100113.78;5110395;28;8822;-79
2023/10/09 09:20:30;;;;;;;;;10.80;9.80;;;;;16.73;35.81;100104.59;5060727;28;8864;-79
2023/10/09 09:22:59;;;;;;;;;12.00;11.00;;;;;16.85;35.14;100097.09;5123200;27;8869;-81
2023/10/09 09:25:44;;;;;;;;;12.60;12.00;;;;;16.86;35.04;100098.84;5110309;27;9602;-79
2023/10/09 09:28:19;;;;;;;;;10.60;10.60;;;;;16.83;35.53;100091.84;5109856;28;8894;-80
2023/10/09 09:30:51;;;;;;;;;15.40;11.80;;;;;17.02;35.31;100097.31;5110300;28;8882;-80
2023/10/09 09:33:39;;;;;;;;;7.80;7.40;;;;;17.08;34.71;100090.88;5109955;28;8846;-80
2023/10/09 09:36:11;;;;;;;;;12.80;12.80;;;;;17.08;34.64;100077.59;5115442;27;8858;-81
2023/10/09 09:38:42;;;;;;;;;15.40;14.20;;;;;17.09;35.35;100076.69;5129841;27;8823;-80
2023/10/09 09:41:13;;;;;;;;;13.00;12.60;;;;;17.35;35.07;100070.38;5130000;27;8854;-77
2023/10/09 09:43:46;;;;;;;;;8.60;8.60;;;;;16.99;35.51;100068.22;5115472;27;8853;-80
2023/10/09 09:46:17;;;;;;;;;10.40;10.00;;;;;17.27;34.95;100061.81;5082585;27;8946;-81
2023/10/09 09:48:49;;;;;;;;;14.60;14.60;;;;;17.07;35.56;100055.50;5113269;27;8863;-79
2023/10/09 09:51:23;;;;;;;;;10.80;10.40;;;;;17.45;35.63;100053.09;5109942;27;8884;-79
2023/10/09 09:53:53;;;;;;;;;9.00;8.60;;;;;17.54;34.23;100047.41;5107466;28;8849;-82
2023/10/09 09:56:25;;;;;;;;;7.60;6.00;;;;;17.74;33.69;100035.06;5107393;28;8949;-81
2023/10/09 09:58:58;;;;;;;;;12.20;10.20;;;;;17.89;33.71;100026.44;5107623;28;9025;-81
2023/10/09 10:01:32;;;;;;;;;7.80;7.00;;;;;18.02;33.60;100009.94;5107774;28;8841;-78
2023/10/09 10:04:06;;;;;;;;;9.40;9.40;;;;;18.28;33.41;100006.97;5108439;28;8841;-82
2023/10/09 10:06:40;;;;;;;;;13.80;13.80;;;;;18.31;33.53;100000.69;5107536;28;8845;-79
2023/10/09 10:09:09;;;;;;;;;6.00;6.00;;;;;18.48;33.16;99995.44;5096340;27;8853;-79
2023/10/09 10:11:45;;;;;;;;;7.40;7.40;;;;;18.29;33.37;99979.44;5108556;28;8961;-80
2023/10/09 10:14:28;;;;;;;;;8.20;8.20;;;;;17.60;34.19;99977.16;5109445;28;8933;-78
2023/10/09 10:17:04;;;;;;;;;8.80;7.80;;;;;18.05;34.20;99969.94;5109367;28;10009;-79
2023/10/09 10:20:14;;;;;;;;;6.80;6.80;;;;;17.75;34.43;99968.53;5109897;28;8833;-82
2023/10/09 10:22:47;;;;;;;;;6.80;6.80;;;;;18.10;33.73;99962.56;5108598;28;8941;-80
2023/10/09 10:25:35;;;;;;;;;4.00;4.00;;;;;18.44;33.34;99947.72;5093311;28;8848;-79
2023/10/09 10:28:28;;;;;;;;;4.40;4.40;;;;;18.64;32.86;99941.44;5121004;27;9614;-81
2023/10/09 10:31:00;;;;;;;;;6.20;6.20;;;;;18.55;33.09;99937.41;5123704;28;8841;-78
2023/10/09 10:34:10;;;;;;;;;4.20;4.20;;;;;18.93;32.92;99922.28;5122491;28;8869;-79
2023/10/09 10:36:43;;;;;;;;;3.80;3.80;;;;;18.93;32.33;99913.41;5109619;27;8866;-77
2023/10/09 10:39:21;;;;;;;;;6.80;5.00;;;;;19.04;32.06;99908.41;5121045;27;8941;-79
2023/10/09 10:41:57;;;;;;;;;3.00;3.00;;;;;19.25;31.35;99894.91;5064282;28;8885;-77
2023/10/09 10:44:38;;;;;;;;;5.20;5.20;;;;;19.33;31.28;99893.59;5077255;28;8879;-79
2023/10/09 10:47:22;;;;;;;;;10.20;8.40;;;;;19.51;30.91;99886.44;5073281;28;8946;-75
2023/10/09 10:49:57;;;;;;;;;6.80;6.80;;;;;19.49;31.19;99874.97;5047947;28;8980;-79
2023/10/09 10:52:41;;;;;;;;;3.20;3.20;;;;;19.61;30.36;99875.31;5038212;28;8957;-76
2023/10/09 10:55:48;;;;;;;;;1.40;1.40;;;;;19.78;30.20;99867.25;5085821;28;8877;-75
2023/10/09 10:58:35;;;;;;;;;6.80;5.80;;;;;19.64;29.86;99862.66;5085272;28;8865;-78
2023/10/09 11:01:13;;;;;;;;;7.00;7.00;;;;;19.72;30.73;99862.25;5052017;28;8880;-76
2023/10/09 11:03:56;;;;;;;;;7.40;7.40;;;;;19.99;30.36;99856.34;5080989;28;8961;-77
2023/10/09 11:06:35;;;;;;;;;8.20;7.00;;;;;20.25;29.78;99860.28;5085082;28;8975;-79
2023/10/09 11:09:21;;;;;;;;;7.60;7.60;;;;;20.19;29.29;99864.13;5086307;28;8925;-79
2023/10/09 11:11:55;;;;;;;;;4.80;4.80;;;;;20.52;28.81;99865.88;5088881;27;8857;-76
2023/10/09 11:14:23;;;;;;;;;4.60;4.60;;;;;20.56;28.86;99854.06;5132080;27;8866;-78
2023/10/09 11:16:57;;;;;;;;;4.20;4.20;;;;;20.39;28.39;99835.47;5131212;27;8851;-78
2023/10/09 11:19:32;;;;;;;;;4.80;3.60;;;;;19.67;28.60;99843.00;5111307;28;8849;-74
2023/10/09 11:25:11;;;;;;;;;4.20;3.60;;;;;20.19;28.12;99825.91;5129032;27;8954;-77
2023/10/09 11:27:50;;;;;;;;;4.40;4.20;;;;;20.64;27.75;99822.41;5123890;27;8881;-78
2023/10/09 11:30:32;;;;;;;;;2.60;2.60;;;;;20.65;28.05;99825.94;5119173;27;9571;-76
2023/10/09 11:33:14;;;;;;;;;4.40;4.40;;;;;20.68;27.90;99817.75;5122203;27;8857;-75
2023/10/09 11:35:58;;;;;;;;;3.20;3.20;;;;;20.64;28.02;99821.56;5093070;28;8979;-76
2023/10/09 11:38:28;;;;;;;;;9.40;9.40;;;;;20.96;28.23;99816.16;5117385;27;8845;-77
2023/10/09 11:41:18;;;;;;;;;4.40;4.40;;;;;21.20;27.55;99808.44;5131127;27;8862;-79
2023/10/09 11:43:53;;;;;;;;;3.00;3.00;;;;;20.09;28.67;99801.53;5131442;27;8863;-76
2023/10/09 11:46:37;;;;;;;;;5.60;4.60;;;;;20.16;29.09;99797.56;5131997;27;8855;-79
2023/10/09 11:49:40;;;;;;;;;2.00;2.00;;;;;19.89;29.31;99786.63;5131307;27;8854;-82
2023/10/09 11:54:57;;;;;;;;;14.80;12.40;;;;;20.70;28.44;99775.78;5131387;27;8855;-77
2023/10/09 11:57:30;;;;;;;;;8.80;8.60;;;;;20.97;28.25;99759.06;5131146;27;8846;-78
2023/10/09 12:00:01;;;;;;;;;11.40;10.40;;;;;21.34;27.73;99756.81;5131398;27;9652;-79
2023/10/09 12:02:32;;;;;;;;;5.40;5.40;;;;;21.58;27.66;99751.72;5131338;27;8846;-78
2023/10/09 12:05:01;;;;;;;;;5.20;5.20;;;;;21.87;27.36;99741.84;5122263;27;8868;-78
2023/10/09 12:07:30;;;;;;;;;3.60;2.60;;;;;21.93;26.22;99744.09;5109820;27;9622;-78
2023/10/09 12:09:59;;;;;;;;;3.60;3.60;;;;;21.12;26.34;99744.75;5110919;28;8904;-77
2023/10/09 12:12:28;;;;;;;;;4.00;4.00;;;;;21.42;26.38;99736.63;5110361;28;8997;-74
2023/10/09 12:14:57;;;;;;;;;3.00;3.00;;;;;21.72;26.78;99732.13;5074516;28;9526;-74
2023/10/09 12:17:27;;;;;;;;;4.40;3.20;;;;;21.94;26.90;99721.75;5111253;27;8822;-75
2023/10/09 12:19:58;;;;;;;;;5.80;5.80;;;;;22.11;27.47;99715.28;5116671;27;8973;-77
2023/10/09 12:22:28;;;;;;;;;5.80;5.80;;;;;22.30;27.01;99724.81;5114850;27;8925;-77
2023/10/09 12:24:57;;;;;;;;;4.40;4.00;;;;;22.47;26.66;99705.75;5122544;27;8877;-75
2023/10/09 12:27:28;;;;;;;;;6.40;6.40;;;;;22.59;26.61;99712.94;5095047;27;8881;-76
2023/10/09 12:29:58;;;;;;;;;3.00;3.00;;;;;22.60;25.95;99701.28;5130548;27;8964;-76
2023/10/09 12:32:28;;;;;;;;;1.40;1.40;;;;;22.65;26.00;99697.41;5127166;27;9420;-74
2023/10/09 12:34:57;;;;;;;;;4.00;4.00;;;;;22.64;25.79;99693.00;5128450;27;8885;-74
2023/10/09 12:37:26;;;;;;;;;6.00;5.20;;;;;22.53;26.15;99680.38;5126073;27;8817;-76
2023/10/09 12:39:56;;;;;;;;;6.80;6.00;;;;;22.44;26.49;99683.69;5108732;27;8965;-74
2023/10/09 12:42:28;;;;;;;;;5.00;5.00;;;;;22.42;26.53;99676.59;5133578;27;8862;-77
2023/10/09 12:44:57;;;;;;;;;7.00;6.00;;;;;22.47;26.39;99673.63;5122249;27;8881;-75
2023/10/09 12:47:28;;;;;;;;;7.00;6.00;;;;;22.50;26.41;99673.38;5110889;27;8865;-74
2023/10/09 12:49:57;;;;;;;;;6.00;5.60;;;;;22.44;26.70;99670.28;5121779;27;8888;-78
2023/10/09 12:52:29;;;;;;;;;8.00;8.00;;;;;22.54;26.83;99657.97;5104666;28;8936;-77
2023/10/09 12:54:58;;;;;;;;;9.20;9.20;;;;;22.52;27.11;99657.22;5121443;27;8863;-79
2023/10/09 12:57:28;;;;;;;;;9.00;9.00;;;;;22.56;27.12;99648.88;5115427;27;8900;-77